sensor_id;sensor_type;location;lat;lon;timestamp;temperature;humidity
76172;DHT22;64929;51.178;4.138;2022-12-24T00:00:33;11.60;83.00
76172;DHT22;64929;51.178;4.138;2022-12-24T00:02:59;11.60;83.10
76172;DHT22;64929;51.178;4.138;2022-12-24T00:05:24;11.70;82.80
76172;DHT22;64929;51.178;4.138;2022-12-24T00:07:50;11.60;83.00
76172;DHT22;64929;51.178;4.138;2022-12-24T00:10:16;11.60;83.00
76172;DHT22;64929;51.178;4.138;2022-12-24T00:12:41;11.60;83.00
76172;DHT22;64929;51.178;4.138;2022-12-24T00:15:08;11.60;83.20
76172;DHT22;64929;51.178;4.138;2022-12-24T00:17:34;11.60;82.90
76172;DHT22;64929;51.178;4.138;2022-12-24T00:19:59;11.50;83.50
76172;DHT22;64929;51.178;4.138;2022-12-24T00:22:25;11.50;83.60
76172;DHT22;64929;51.178;4.138;2022-12-24T00:24:51;11.50;83.80
76172;DHT22;64929;51.178;4.138;2022-12-24T00:27:16;11.60;83.60
76172;DHT22;64929;51.178;4.138;2022-12-24T00:29:42;11.60;83.20
76172;DHT22;64929;51.178;4.138;2022-12-24T00:32:08;11.70;82.90
76172;DHT22;64929;51.178;4.138;2022-12-24T00:34:38;11.60;82.70
76172;DHT22;64929;51.178;4.138;2022-12-24T00:37:04;11.70;82.60
76172;DHT22;64929;51.178;4.138;2022-12-24T00:39:30;11.70;82.50
76172;DHT22;64929;51.178;4.138;2022-12-24T00:41:56;11.70;82.70
76172;DHT22;64929;51.178;4.138;2022-12-24T00:44:22;11.60;82.70
76172;DHT22;64929;51.178;4.138;2022-12-24T00:46:47;11.70;82.90
76172;DHT22;64929;51.178;4.138;2022-12-24T00:49:14;11.60;83.20
76172;DHT22;64929;51.178;4.138;2022-12-24T00:51:39;11.60;83.50
76172;DHT22;64929;51.178;4.138;2022-12-24T00:54:05;11.60;83.70
76172;DHT22;64929;51.178;4.138;2022-12-24T00:56:32;11.70;83.60
76172;DHT22;64929;51.178;4.138;2022-12-24T00:58:57;11.70;83.40
76172;DHT22;64929;51.178;4.138;2022-12-24T01:01:24;11.60;84.00
76172;DHT22;64929;51.178;4.138;2022-12-24T01:03:50;11.60;83.90
76172;DHT22;64929;51.178;4.138;2022-12-24T01:06:18;11.70;84.10
76172;DHT22;64929;51.178;4.138;2022-12-24T01:08:44;11.70;84.10
76172;DHT22;64929;51.178;4.138;2022-12-24T01:11:11;11.70;83.90
76172;DHT22;64929;51.178;4.138;2022-12-24T01:13:38;11.60;84.50
76172;DHT22;64929;51.178;4.138;2022-12-24T01:16:15;11.70;84.40
76172;DHT22;64929;51.178;4.138;2022-12-24T01:18:41;11.80;83.70
76172;DHT22;64929;51.178;4.138;2022-12-24T01:21:07;11.80;83.70
76172;DHT22;64929;51.178;4.138;2022-12-24T01:23:32;11.70;83.90
76172;DHT22;64929;51.178;4.138;2022-12-24T01:26:03;11.70;84.00
76172;DHT22;64929;51.178;4.138;2022-12-24T01:28:29;11.70;84.10
76172;DHT22;64929;51.178;4.138;2022-12-24T01:30:55;11.70;84.30
76172;DHT22;64929;51.178;4.138;2022-12-24T01:33:21;11.60;84.90
76172;DHT22;64929;51.178;4.138;2022-12-24T01:35:46;11.60;85.20
76172;DHT22;64929;51.178;4.138;2022-12-24T01:38:13;11.60;85.10
76172;DHT22;64929;51.178;4.138;2022-12-24T01:40:40;11.60;85.00
76172;DHT22;64929;51.178;4.138;2022-12-24T01:43:27;11.60;85.30
76172;DHT22;64929;51.178;4.138;2022-12-24T01:48:42;11.60;85.90
76172;DHT22;64929;51.178;4.138;2022-12-24T01:53:56;11.60;86.00
76172;DHT22;64929;51.178;4.138;2022-12-24T01:56:23;11.60;86.10
76172;DHT22;64929;51.178;4.138;2022-12-24T01:58:53;11.60;85.90
76172;DHT22;64929;51.178;4.138;2022-12-24T02:01:20;11.70;85.30
76172;DHT22;64929;51.178;4.138;2022-12-24T02:03:46;11.70;85.20
76172;DHT22;64929;51.178;4.138;2022-12-24T02:06:12;11.80;84.80
76172;DHT22;64929;51.178;4.138;2022-12-24T02:08:43;11.80;85.00
76172;DHT22;64929;51.178;4.138;2022-12-24T02:11:17;11.90;84.80
76172;DHT22;64929;51.178;4.138;2022-12-24T02:13:48;11.90;84.80
76172;DHT22;64929;51.178;4.138;2022-12-24T02:19:44;11.80;84.70
76172;DHT22;64929;51.178;4.138;2022-12-24T02:25:07;11.70;86.20
76172;DHT22;64929;51.178;4.138;2022-12-24T02:33:25;11.80;85.70
76172;DHT22;64929;51.178;4.138;2022-12-24T02:36:02;11.80;85.70
76172;DHT22;64929;51.178;4.138;2022-12-24T02:38:46;11.70;86.00
76172;DHT22;64929;51.178;4.138;2022-12-24T02:41:21;11.70;86.20
76172;DHT22;64929;51.178;4.138;2022-12-24T02:43:49;11.80;85.80
76172;DHT22;64929;51.178;4.138;2022-12-24T02:46:19;11.70;85.80
76172;DHT22;64929;51.178;4.138;2022-12-24T02:48:47;11.70;85.90
76172;DHT22;64929;51.178;4.138;2022-12-24T02:51:14;11.70;85.40
76172;DHT22;64929;51.178;4.138;2022-12-24T02:53:40;11.70;85.30
76172;DHT22;64929;51.178;4.138;2022-12-24T02:56:36;11.70;85.30
76172;DHT22;64929;51.178;4.138;2022-12-24T03:05:25;11.90;83.60
76172;DHT22;64929;51.178;4.138;2022-12-24T03:08:11;11.90;83.50
76172;DHT22;64929;51.178;4.138;2022-12-24T03:10:53;11.70;84.10
76172;DHT22;64929;51.178;4.138;2022-12-24T03:13:22;11.80;84.00
76172;DHT22;64929;51.178;4.138;2022-12-24T03:15:49;11.80;84.20
76172;DHT22;64929;51.178;4.138;2022-12-24T03:18:19;11.80;84.30
76172;DHT22;64929;51.178;4.138;2022-12-24T03:20:51;11.70;84.10
76172;DHT22;64929;51.178;4.138;2022-12-24T03:23:19;11.70;84.20
76172;DHT22;64929;51.178;4.138;2022-12-24T03:25:45;11.70;84.40
76172;DHT22;64929;51.178;4.138;2022-12-24T03:28:13;11.70;84.40
76172;DHT22;64929;51.178;4.138;2022-12-24T03:30:44;11.60;84.50
76172;DHT22;64929;51.178;4.138;2022-12-24T03:33:11;11.80;84.10
76172;DHT22;64929;51.178;4.138;2022-12-24T03:35:37;11.80;83.80
76172;DHT22;64929;51.178;4.138;2022-12-24T03:38:03;11.90;83.40
76172;DHT22;64929;51.178;4.138;2022-12-24T03:40:29;11.80;83.90
76172;DHT22;64929;51.178;4.138;2022-12-24T03:42:55;11.70;84.40
76172;DHT22;64929;51.178;4.138;2022-12-24T03:45:21;11.60;84.60
76172;DHT22;64929;51.178;4.138;2022-12-24T03:47:46;11.60;85.00
76172;DHT22;64929;51.178;4.138;2022-12-24T03:50:12;11.70;84.60
76172;DHT22;64929;51.178;4.138;2022-12-24T03:52:38;11.70;84.70
76172;DHT22;64929;51.178;4.138;2022-12-24T03:55:04;11.70;84.40
76172;DHT22;64929;51.178;4.138;2022-12-24T03:57:30;11.80;84.10
76172;DHT22;64929;51.178;4.138;2022-12-24T03:59:55;11.70;84.30
76172;DHT22;64929;51.178;4.138;2022-12-24T04:02:21;11.50;85.00
76172;DHT22;64929;51.178;4.138;2022-12-24T04:04:47;11.40;85.50
76172;DHT22;64929;51.178;4.138;2022-12-24T04:07:12;11.40;85.70
76172;DHT22;64929;51.178;4.138;2022-12-24T04:09:38;11.30;85.70
76172;DHT22;64929;51.178;4.138;2022-12-24T04:12:05;11.30;85.90
76172;DHT22;64929;51.178;4.138;2022-12-24T04:14:31;11.30;85.90
76172;DHT22;64929;51.178;4.138;2022-12-24T04:16:57;11.30;85.50
76172;DHT22;64929;51.178;4.138;2022-12-24T04:19:22;11.30;85.70
76172;DHT22;64929;51.178;4.138;2022-12-24T04:21:48;11.40;85.20
76172;DHT22;64929;51.178;4.138;2022-12-24T04:24:14;11.40;85.10
76172;DHT22;64929;51.178;4.138;2022-12-24T04:26:39;11.40;85.30
76172;DHT22;64929;51.178;4.138;2022-12-24T04:29:05;11.40;85.30
76172;DHT22;64929;51.178;4.138;2022-12-24T04:31:31;11.40;85.00
76172;DHT22;64929;51.178;4.138;2022-12-24T04:33:57;11.40;86.00
76172;DHT22;64929;51.178;4.138;2022-12-24T04:36:22;11.40;85.60
76172;DHT22;64929;51.178;4.138;2022-12-24T04:38:48;11.30;85.30
76172;DHT22;64929;51.178;4.138;2022-12-24T04:41:19;11.40;85.40
76172;DHT22;64929;51.178;4.138;2022-12-24T04:43:45;11.50;85.20
76172;DHT22;64929;51.178;4.138;2022-12-24T04:46:13;11.40;85.10
76172;DHT22;64929;51.178;4.138;2022-12-24T04:48:40;11.40;84.80
76172;DHT22;64929;51.178;4.138;2022-12-24T04:51:08;11.40;85.00
76172;DHT22;64929;51.178;4.138;2022-12-24T04:53:34;11.30;85.20
76172;DHT22;64929;51.178;4.138;2022-12-24T04:56:01;11.30;85.10
76172;DHT22;64929;51.178;4.138;2022-12-24T04:58:27;11.30;85.00
76172;DHT22;64929;51.178;4.138;2022-12-24T05:00:53;11.20;85.20
76172;DHT22;64929;51.178;4.138;2022-12-24T05:03:19;11.10;85.70
76172;DHT22;64929;51.178;4.138;2022-12-24T05:05:45;11.10;85.80
76172;DHT22;64929;51.178;4.138;2022-12-24T05:08:12;11.10;85.80
76172;DHT22;64929;51.178;4.138;2022-12-24T05:10:38;11.20;85.60
76172;DHT22;64929;51.178;4.138;2022-12-24T05:13:04;11.20;85.30
76172;DHT22;64929;51.178;4.138;2022-12-24T05:15:30;11.20;85.40
76172;DHT22;64929;51.178;4.138;2022-12-24T05:17:56;11.20;85.20
76172;DHT22;64929;51.178;4.138;2022-12-24T05:20:23;11.30;85.00
76172;DHT22;64929;51.178;4.138;2022-12-24T05:22:48;11.20;85.10
76172;DHT22;64929;51.178;4.138;2022-12-24T05:25:37;11.10;85.00
76172;DHT22;64929;51.178;4.138;2022-12-24T05:28:22;11.10;85.10
76172;DHT22;64929;51.178;4.138;2022-12-24T05:30:49;11.20;84.80
76172;DHT22;64929;51.178;4.138;2022-12-24T05:33:14;11.10;85.10
76172;DHT22;64929;51.178;4.138;2022-12-24T05:35:40;11.10;85.00
76172;DHT22;64929;51.178;4.138;2022-12-24T05:38:06;11.20;84.80
76172;DHT22;64929;51.178;4.138;2022-12-24T05:40:31;11.20;84.80
76172;DHT22;64929;51.178;4.138;2022-12-24T05:42:57;11.20;84.70
76172;DHT22;64929;51.178;4.138;2022-12-24T05:45:23;11.20;85.30
76172;DHT22;64929;51.178;4.138;2022-12-24T05:47:48;11.20;84.80
76172;DHT22;64929;51.178;4.138;2022-12-24T05:50:14;11.20;85.00
76172;DHT22;64929;51.178;4.138;2022-12-24T05:52:40;11.20;84.90
76172;DHT22;64929;51.178;4.138;2022-12-24T05:55:06;11.20;84.70
76172;DHT22;64929;51.178;4.138;2022-12-24T05:57:33;11.20;84.60
76172;DHT22;64929;51.178;4.138;2022-12-24T05:59:59;11.20;84.70
76172;DHT22;64929;51.178;4.138;2022-12-24T06:02:24;11.20;85.10
76172;DHT22;64929;51.178;4.138;2022-12-24T06:04:50;11.30;84.90
76172;DHT22;64929;51.178;4.138;2022-12-24T06:07:15;11.30;84.50
76172;DHT22;64929;51.178;4.138;2022-12-24T06:09:41;11.20;85.00
76172;DHT22;64929;51.178;4.138;2022-12-24T06:12:07;11.30;84.80
76172;DHT22;64929;51.178;4.138;2022-12-24T06:14:32;11.40;84.20
76172;DHT22;64929;51.178;4.138;2022-12-24T06:16:58;11.30;84.70
76172;DHT22;64929;51.178;4.138;2022-12-24T06:19:24;11.20;85.50
76172;DHT22;64929;51.178;4.138;2022-12-24T06:21:50;11.20;85.70
76172;DHT22;64929;51.178;4.138;2022-12-24T06:24:15;11.10;86.30
76172;DHT22;64929;51.178;4.138;2022-12-24T06:26:41;11.20;86.30
76172;DHT22;64929;51.178;4.138;2022-12-24T06:29:07;11.20;86.10
76172;DHT22;64929;51.178;4.138;2022-12-24T06:31:33;11.30;85.70
76172;DHT22;64929;51.178;4.138;2022-12-24T06:33:58;11.10;86.50
76172;DHT22;64929;51.178;4.138;2022-12-24T06:36:24;11.10;86.30
76172;DHT22;64929;51.178;4.138;2022-12-24T06:38:52;11.10;86.00
76172;DHT22;64929;51.178;4.138;2022-12-24T06:41:19;11.20;86.00
76172;DHT22;64929;51.178;4.138;2022-12-24T06:43:49;11.20;85.80
76172;DHT22;64929;51.178;4.138;2022-12-24T06:46:16;11.20;85.90
76172;DHT22;64929;51.178;4.138;2022-12-24T06:48:45;11.20;85.70
76172;DHT22;64929;51.178;4.138;2022-12-24T06:51:12;11.20;85.90
76172;DHT22;64929;51.178;4.138;2022-12-24T06:53:37;11.00;86.50
76172;DHT22;64929;51.178;4.138;2022-12-24T06:56:05;11.10;86.40
76172;DHT22;64929;51.178;4.138;2022-12-24T06:58:32;11.10;86.50
76172;DHT22;64929;51.178;4.138;2022-12-24T07:01:00;11.10;86.50
76172;DHT22;64929;51.178;4.138;2022-12-24T07:03:27;11.10;86.50
76172;DHT22;64929;51.178;4.138;2022-12-24T07:05:53;11.10;86.60
76172;DHT22;64929;51.178;4.138;2022-12-24T07:08:19;11.00;86.90
76172;DHT22;64929;51.178;4.138;2022-12-24T07:10:44;11.10;86.70
76172;DHT22;64929;51.178;4.138;2022-12-24T07:13:10;11.10;86.70
76172;DHT22;64929;51.178;4.138;2022-12-24T07:15:35;11.10;86.80
76172;DHT22;64929;51.178;4.138;2022-12-24T07:18:01;11.20;86.40
76172;DHT22;64929;51.178;4.138;2022-12-24T07:20:27;11.20;86.00
76172;DHT22;64929;51.178;4.138;2022-12-24T07:22:52;11.10;86.30
76172;DHT22;64929;51.178;4.138;2022-12-24T07:25:18;11.10;86.50
76172;DHT22;64929;51.178;4.138;2022-12-24T07:27:44;11.10;86.50
76172;DHT22;64929;51.178;4.138;2022-12-24T07:30:10;11.10;86.70
76172;DHT22;64929;51.178;4.138;2022-12-24T07:32:36;11.10;86.40
76172;DHT22;64929;51.178;4.138;2022-12-24T07:35:01;11.20;85.90
76172;DHT22;64929;51.178;4.138;2022-12-24T07:37:27;11.20;85.50
76172;DHT22;64929;51.178;4.138;2022-12-24T07:39:53;11.20;85.90
76172;DHT22;64929;51.178;4.138;2022-12-24T07:42:19;11.10;86.10
76172;DHT22;64929;51.178;4.138;2022-12-24T07:44:45;11.20;86.10
76172;DHT22;64929;51.178;4.138;2022-12-24T07:47:11;11.20;86.00
76172;DHT22;64929;51.178;4.138;2022-12-24T07:49:36;11.20;85.50
76172;DHT22;64929;51.178;4.138;2022-12-24T07:52:03;11.30;85.40
76172;DHT22;64929;51.178;4.138;2022-12-24T07:54:29;11.30;85.20
76172;DHT22;64929;51.178;4.138;2022-12-24T07:56:54;11.20;85.30
76172;DHT22;64929;51.178;4.138;2022-12-24T07:59:20;11.30;85.30
76172;DHT22;64929;51.178;4.138;2022-12-24T08:01:49;11.30;85.00
76172;DHT22;64929;51.178;4.138;2022-12-24T08:10:14;11.20;85.30
76172;DHT22;64929;51.178;4.138;2022-12-24T08:12:39;11.20;85.00
76172;DHT22;64929;51.178;4.138;2022-12-24T08:15:05;11.10;85.30
76172;DHT22;64929;51.178;4.138;2022-12-24T08:17:31;11.30;84.90
76172;DHT22;64929;51.178;4.138;2022-12-24T08:20:07;11.30;84.70
76172;DHT22;64929;51.178;4.138;2022-12-24T08:22:41;11.40;84.50
76172;DHT22;64929;51.178;4.138;2022-12-24T08:27:59;11.30;84.70
76172;DHT22;64929;51.178;4.138;2022-12-24T08:30:25;11.30;84.40
76172;DHT22;64929;51.178;4.138;2022-12-24T08:32:50;11.20;85.00
76172;DHT22;64929;51.178;4.138;2022-12-24T08:35:19;11.20;85.00
76172;DHT22;64929;51.178;4.138;2022-12-24T08:37:45;11.30;84.70
76172;DHT22;64929;51.178;4.138;2022-12-24T08:40:23;11.30;84.50
76172;DHT22;64929;51.178;4.138;2022-12-24T08:42:55;11.30;84.20
76172;DHT22;64929;51.178;4.138;2022-12-24T08:45:29;11.40;84.10
76172;DHT22;64929;51.178;4.138;2022-12-24T08:47:57;11.50;83.80
76172;DHT22;64929;51.178;4.138;2022-12-24T08:50:26;11.40;84.40
76172;DHT22;64929;51.178;4.138;2022-12-24T08:52:53;11.40;84.00
76172;DHT22;64929;51.178;4.138;2022-12-24T08:55:18;11.40;83.80
76172;DHT22;64929;51.178;4.138;2022-12-24T08:57:44;11.40;83.60
76172;DHT22;64929;51.178;4.138;2022-12-24T09:00:11;11.50;83.60
76172;DHT22;64929;51.178;4.138;2022-12-24T09:02:40;11.40;83.50
76172;DHT22;64929;51.178;4.138;2022-12-24T09:05:07;11.70;82.70
76172;DHT22;64929;51.178;4.138;2022-12-24T09:07:32;11.60;82.50
76172;DHT22;64929;51.178;4.138;2022-12-24T09:09:58;11.60;82.70
76172;DHT22;64929;51.178;4.138;2022-12-24T09:12:24;11.60;82.80
76172;DHT22;64929;51.178;4.138;2022-12-24T09:14:50;11.60;82.70
76172;DHT22;64929;51.178;4.138;2022-12-24T09:17:16;11.60;83.00
76172;DHT22;64929;51.178;4.138;2022-12-24T09:19:45;11.50;83.00
76172;DHT22;64929;51.178;4.138;2022-12-24T09:22:11;11.60;82.90
76172;DHT22;64929;51.178;4.138;2022-12-24T09:24:37;11.60;83.00
76172;DHT22;64929;51.178;4.138;2022-12-24T09:27:06;11.50;82.90
76172;DHT22;64929;51.178;4.138;2022-12-24T09:29:31;11.50;83.20
76172;DHT22;64929;51.178;4.138;2022-12-24T09:31:57;11.40;83.60
76172;DHT22;64929;51.178;4.138;2022-12-24T09:34:24;11.40;83.90
76172;DHT22;64929;51.178;4.138;2022-12-24T09:36:52;11.60;83.30
76172;DHT22;64929;51.178;4.138;2022-12-24T09:39:19;11.60;83.20
76172;DHT22;64929;51.178;4.138;2022-12-24T09:42:01;11.60;83.20
76172;DHT22;64929;51.178;4.138;2022-12-24T09:48:11;11.70;83.10
76172;DHT22;64929;51.178;4.138;2022-12-24T09:51:03;11.80;82.80
76172;DHT22;64929;51.178;4.138;2022-12-24T09:56:08;11.80;82.20
76172;DHT22;64929;51.178;4.138;2022-12-24T09:58:45;11.70;83.00
76172;DHT22;64929;51.178;4.138;2022-12-24T10:01:13;11.80;82.90
76172;DHT22;64929;51.178;4.138;2022-12-24T10:03:40;11.70;83.10
76172;DHT22;64929;51.178;4.138;2022-12-24T10:06:19;11.70;83.70
76172;DHT22;64929;51.178;4.138;2022-12-24T10:12:19;11.70;83.10
76172;DHT22;64929;51.178;4.138;2022-12-24T10:15:35;11.90;82.40
76172;DHT22;64929;51.178;4.138;2022-12-24T10:18:03;11.80;82.40
76172;DHT22;64929;51.178;4.138;2022-12-24T10:29:28;11.90;82.40
76172;DHT22;64929;51.178;4.138;2022-12-24T10:34:37;11.90;82.90
76172;DHT22;64929;51.178;4.138;2022-12-24T10:37:16;12.00;81.90
76172;DHT22;64929;51.178;4.138;2022-12-24T10:39:53;12.20;81.70
76172;DHT22;64929;51.178;4.138;2022-12-24T10:42:22;12.20;80.90
76172;DHT22;64929;51.178;4.138;2022-12-24T10:45:00;12.30;80.80
76172;DHT22;64929;51.178;4.138;2022-12-24T10:47:27;12.20;80.90
76172;DHT22;64929;51.178;4.138;2022-12-24T10:50:14;12.10;81.30
76172;DHT22;64929;51.178;4.138;2022-12-24T10:52:43;12.10;81.30
76172;DHT22;64929;51.178;4.138;2022-12-24T10:58:06;12.10;81.70
76172;DHT22;64929;51.178;4.138;2022-12-24T11:00:37;12.20;81.70
76172;DHT22;64929;51.178;4.138;2022-12-24T11:03:24;12.00;81.90
76172;DHT22;64929;51.178;4.138;2022-12-24T11:08:26;12.20;82.10
76172;DHT22;64929;51.178;4.138;2022-12-24T11:11:00;12.40;81.30
76172;DHT22;64929;51.178;4.138;2022-12-24T11:16:25;12.40;81.50
76172;DHT22;64929;51.178;4.138;2022-12-24T11:18:55;12.40;81.30
76172;DHT22;64929;51.178;4.138;2022-12-24T11:21:41;12.40;80.80
76172;DHT22;64929;51.178;4.138;2022-12-24T11:26:41;12.40;80.70
76172;DHT22;64929;51.178;4.138;2022-12-24T11:29:26;12.20;81.40
76172;DHT22;64929;51.178;4.138;2022-12-24T11:31:52;12.30;81.60
76172;DHT22;64929;51.178;4.138;2022-12-24T11:34:34;12.20;81.90
76172;DHT22;64929;51.178;4.138;2022-12-24T11:37:21;12.40;81.40
76172;DHT22;64929;51.178;4.138;2022-12-24T11:39:53;12.40;80.80
76172;DHT22;64929;51.178;4.138;2022-12-24T11:42:37;12.30;81.10
76172;DHT22;64929;51.178;4.138;2022-12-24T11:45:20;12.40;81.00
76172;DHT22;64929;51.178;4.138;2022-12-24T11:47:46;12.50;80.60
76172;DHT22;64929;51.178;4.138;2022-12-24T11:52:46;12.70;79.80
76172;DHT22;64929;51.178;4.138;2022-12-24T11:55:23;12.70;79.80
76172;DHT22;64929;51.178;4.138;2022-12-24T12:00:19;12.90;78.80
76172;DHT22;64929;51.178;4.138;2022-12-24T12:02:47;12.80;78.60
76172;DHT22;64929;51.178;4.138;2022-12-24T12:05:32;12.90;78.70
76172;DHT22;64929;51.178;4.138;2022-12-24T12:08:16;13.00;78.40
76172;DHT22;64929;51.178;4.138;2022-12-24T12:10:43;13.10;78.20
76172;DHT22;64929;51.178;4.138;2022-12-24T12:13:30;13.20;77.90
76172;DHT22;64929;51.178;4.138;2022-12-24T12:16:29;13.40;76.90
76172;DHT22;64929;51.178;4.138;2022-12-24T12:19:19;13.40;76.80
76172;DHT22;64929;51.178;4.138;2022-12-24T12:21:48;13.20;77.70
76172;DHT22;64929;51.178;4.138;2022-12-24T12:24:21;13.30;77.50
76172;DHT22;64929;51.178;4.138;2022-12-24T12:26:59;13.40;76.80
76172;DHT22;64929;51.178;4.138;2022-12-24T12:29:41;13.40;77.20
76172;DHT22;64929;51.178;4.138;2022-12-24T12:32:24;13.40;76.80
76172;DHT22;64929;51.178;4.138;2022-12-24T12:35:03;13.30;77.60
76172;DHT22;64929;51.178;4.138;2022-12-24T12:37:37;13.10;77.80
76172;DHT22;64929;51.178;4.138;2022-12-24T12:40:14;13.10;77.90
76172;DHT22;64929;51.178;4.138;2022-12-24T12:42:56;13.00;78.40
76172;DHT22;64929;51.178;4.138;2022-12-24T12:51:24;13.20;77.80
76172;DHT22;64929;51.178;4.138;2022-12-24T12:54:05;13.20;77.80
76172;DHT22;64929;51.178;4.138;2022-12-24T12:56:35;13.20;77.70
76172;DHT22;64929;51.178;4.138;2022-12-24T12:59:27;13.20;77.60
76172;DHT22;64929;51.178;4.138;2022-12-24T13:02:07;13.10;78.20
76172;DHT22;64929;51.178;4.138;2022-12-24T13:17:56;13.20;78.00
76172;DHT22;64929;51.178;4.138;2022-12-24T13:20:34;13.30;77.80
76172;DHT22;64929;51.178;4.138;2022-12-24T13:23:14;13.40;77.00
76172;DHT22;64929;51.178;4.138;2022-12-24T13:25:44;13.30;77.50
76172;DHT22;64929;51.178;4.138;2022-12-24T13:30:49;13.50;76.60
76172;DHT22;64929;51.178;4.138;2022-12-24T13:33:46;13.40;76.80
76172;DHT22;64929;51.178;4.138;2022-12-24T13:36:16;13.20;77.50
76172;DHT22;64929;51.178;4.138;2022-12-24T13:38:55;13.10;78.30
76172;DHT22;64929;51.178;4.138;2022-12-24T13:46:58;13.00;79.10
76172;DHT22;64929;51.178;4.138;2022-12-24T13:49:39;13.00;78.30
76172;DHT22;64929;51.178;4.138;2022-12-24T13:52:16;13.00;78.50
76172;DHT22;64929;51.178;4.138;2022-12-24T14:02:54;12.90;78.50
76172;DHT22;64929;51.178;4.138;2022-12-24T14:08:07;12.80;79.00
76172;DHT22;64929;51.178;4.138;2022-12-24T14:10:56;12.80;79.60
76172;DHT22;64929;51.178;4.138;2022-12-24T14:16:21;13.00;78.70
76172;DHT22;64929;51.178;4.138;2022-12-24T14:19:15;13.00;78.30
76172;DHT22;64929;51.178;4.138;2022-12-24T14:22:13;13.10;78.10
76172;DHT22;64929;51.178;4.138;2022-12-24T14:24:35;13.20;78.20
76172;DHT22;64929;51.178;4.138;2022-12-24T14:27:16;13.00;77.80
76172;DHT22;64929;51.178;4.138;2022-12-24T14:32:48;13.10;78.00
76172;DHT22;64929;51.178;4.138;2022-12-24T14:35:19;13.00;78.10
76172;DHT22;64929;51.178;4.138;2022-12-24T14:38:13;13.10;78.00
76172;DHT22;64929;51.178;4.138;2022-12-24T14:49:35;13.10;77.80
76172;DHT22;64929;51.178;4.138;2022-12-24T14:52:20;13.00;78.20
76172;DHT22;64929;51.178;4.138;2022-12-24T14:54:49;13.10;77.40
76172;DHT22;64929;51.178;4.138;2022-12-24T14:57:21;13.10;77.80
76172;DHT22;64929;51.178;4.138;2022-12-24T14:59:53;13.00;78.10
76172;DHT22;64929;51.178;4.138;2022-12-24T15:05:09;13.10;77.60
76172;DHT22;64929;51.178;4.138;2022-12-24T15:07:38;13.00;78.00
76172;DHT22;64929;51.178;4.138;2022-12-24T15:12:47;13.00;78.00
76172;DHT22;64929;51.178;4.138;2022-12-24T15:15:15;12.80;78.40
76172;DHT22;64929;51.178;4.138;2022-12-24T15:17:42;12.70;79.00
76172;DHT22;64929;51.178;4.138;2022-12-24T15:20:15;12.60;79.30
76172;DHT22;64929;51.178;4.138;2022-12-24T15:22:41;12.50;79.80
76172;DHT22;64929;51.178;4.138;2022-12-24T15:25:43;12.40;79.60
76172;DHT22;64929;51.178;4.138;2022-12-24T15:28:19;12.40;80.00
76172;DHT22;64929;51.178;4.138;2022-12-24T15:30:45;12.50;79.50
76172;DHT22;64929;51.178;4.138;2022-12-24T15:33:11;12.50;79.60
76172;DHT22;64929;51.178;4.138;2022-12-24T15:35:49;12.60;79.10
76172;DHT22;64929;51.178;4.138;2022-12-24T15:38:45;12.50;79.00
76172;DHT22;64929;51.178;4.138;2022-12-24T15:41:21;12.50;79.60
76172;DHT22;64929;51.178;4.138;2022-12-24T15:43:49;12.40;79.50
76172;DHT22;64929;51.178;4.138;2022-12-24T15:46:22;12.30;79.70
76172;DHT22;64929;51.178;4.138;2022-12-24T15:48:49;12.30;79.50
76172;DHT22;64929;51.178;4.138;2022-12-24T15:53:56;12.30;79.60
76172;DHT22;64929;51.178;4.138;2022-12-24T15:56:34;12.20;79.50
76172;DHT22;64929;51.178;4.138;2022-12-24T16:01:46;12.40;78.80
76172;DHT22;64929;51.178;4.138;2022-12-24T16:04:16;12.40;78.50
76172;DHT22;64929;51.178;4.138;2022-12-24T16:12:15;12.20;79.50
76172;DHT22;64929;51.178;4.138;2022-12-24T16:14:53;12.30;79.20
76172;DHT22;64929;51.178;4.138;2022-12-24T16:17:24;12.30;79.00
76172;DHT22;64929;51.178;4.138;2022-12-24T16:19:52;12.30;78.60
76172;DHT22;64929;51.178;4.138;2022-12-24T16:22:21;12.30;78.70
76172;DHT22;64929;51.178;4.138;2022-12-24T16:27:50;12.30;78.80
76172;DHT22;64929;51.178;4.138;2022-12-24T16:30:17;12.40;78.30
76172;DHT22;64929;51.178;4.138;2022-12-24T16:32:46;12.30;78.30
76172;DHT22;64929;51.178;4.138;2022-12-24T16:35:22;12.30;78.70
76172;DHT22;64929;51.178;4.138;2022-12-24T16:37:49;12.20;79.40
76172;DHT22;64929;51.178;4.138;2022-12-24T16:40:15;12.00;80.60
76172;DHT22;64929;51.178;4.138;2022-12-24T16:42:41;11.90;80.90
76172;DHT22;64929;51.178;4.138;2022-12-24T16:45:27;11.90;80.20
76172;DHT22;64929;51.178;4.138;2022-12-24T16:47:56;11.90;80.80
76172;DHT22;64929;51.178;4.138;2022-12-24T16:50:22;12.10;79.70
76172;DHT22;64929;51.178;4.138;2022-12-24T16:52:47;11.90;80.50
76172;DHT22;64929;51.178;4.138;2022-12-24T16:55:14;11.90;80.70
76172;DHT22;64929;51.178;4.138;2022-12-24T16:57:40;11.90;80.80
76172;DHT22;64929;51.178;4.138;2022-12-24T17:00:10;11.90;80.90
76172;DHT22;64929;51.178;4.138;2022-12-24T17:02:38;11.80;81.00
76172;DHT22;64929;51.178;4.138;2022-12-24T17:05:04;11.80;81.10
76172;DHT22;64929;51.178;4.138;2022-12-24T17:07:30;11.80;81.00
76172;DHT22;64929;51.178;4.138;2022-12-24T17:09:56;11.80;81.40
76172;DHT22;64929;51.178;4.138;2022-12-24T17:12:22;11.70;81.60
76172;DHT22;64929;51.178;4.138;2022-12-24T17:14:47;11.70;82.10
76172;DHT22;64929;51.178;4.138;2022-12-24T17:19:45;11.60;82.70
76172;DHT22;64929;51.178;4.138;2022-12-24T17:22:11;11.50;83.10
76172;DHT22;64929;51.178;4.138;2022-12-24T17:24:37;11.50;83.20
76172;DHT22;64929;51.178;4.138;2022-12-24T17:27:02;11.40;83.30
76172;DHT22;64929;51.178;4.138;2022-12-24T17:29:28;11.40;83.40
76172;DHT22;64929;51.178;4.138;2022-12-24T17:31:53;11.50;82.90
76172;DHT22;64929;51.178;4.138;2022-12-24T17:34:19;11.50;83.20
76172;DHT22;64929;51.178;4.138;2022-12-24T17:36:45;11.50;83.00
76172;DHT22;64929;51.178;4.138;2022-12-24T17:39:11;11.50;83.10
76172;DHT22;64929;51.178;4.138;2022-12-24T17:41:36;11.40;83.20
76172;DHT22;64929;51.178;4.138;2022-12-24T17:44:02;11.40;83.50
76172;DHT22;64929;51.178;4.138;2022-12-24T17:46:29;11.40;83.30
76172;DHT22;64929;51.178;4.138;2022-12-24T17:48:55;11.40;83.60
76172;DHT22;64929;51.178;4.138;2022-12-24T17:51:21;11.30;84.20
76172;DHT22;64929;51.178;4.138;2022-12-24T17:53:48;11.30;84.20
76172;DHT22;64929;51.178;4.138;2022-12-24T17:56:14;11.20;84.20
76172;DHT22;64929;51.178;4.138;2022-12-24T17:58:41;11.10;85.00
76172;DHT22;64929;51.178;4.138;2022-12-24T18:01:12;11.10;85.00
76172;DHT22;64929;51.178;4.138;2022-12-24T18:03:38;11.10;85.10
76172;DHT22;64929;51.178;4.138;2022-12-24T18:06:06;11.10;85.10
76172;DHT22;64929;51.178;4.138;2022-12-24T18:08:33;11.10;85.10
76172;DHT22;64929;51.178;4.138;2022-12-24T18:10:59;11.20;84.40